createdAt,value
2023-04-18T00:02:21.933Z,0
2023-04-18T00:04:47.189Z,0
2023-04-18T00:07:12.402Z,0
2023-04-18T00:09:39.124Z,0
2023-04-18T00:12:05.786Z,0
2023-04-18T00:16:59.146Z,0
2023-04-18T00:21:52.518Z,0
2023-04-18T00:24:19.196Z,0
2023-04-18T00:26:45.894Z,0
2023-04-18T00:29:12.570Z,0
2023-04-18T00:31:39.254Z,0
2023-04-18T00:34:05.973Z,0
2023-04-18T00:36:32.621Z,0
2023-04-18T00:38:57.876Z,0
2023-04-18T00:41:23.086Z,0
2023-04-18T00:43:49.788Z,0
2023-04-18T00:46:16.463Z,0
2023-04-18T00:48:43.152Z,0
2023-04-18T00:51:09.823Z,0
2023-04-18T00:53:36.524Z,0
2023-04-18T00:56:03.209Z,0
2023-04-18T00:58:29.929Z,0
2023-04-18T01:00:56.570Z,0
2023-04-18T01:03:23.254Z,0
2023-04-18T01:05:49.934Z,0
2023-04-18T01:08:16.628Z,0
2023-04-18T01:10:43.314Z,0
2023-04-18T01:13:10.004Z,0
2023-04-18T01:15:35.240Z,0
2023-04-18T01:18:00.466Z,0
2023-04-18T01:20:27.163Z,0
2023-04-18T01:22:53.837Z,0
2023-04-18T01:25:20.523Z,0
2023-04-18T01:27:47.221Z,0
2023-04-18T01:30:13.881Z,0
2023-04-18T01:32:40.580Z,0
2023-04-18T01:35:07.261Z,0
2023-04-18T01:37:33.942Z,0
2023-04-18T01:40:00.631Z,0
2023-04-18T01:42:25.887Z,0
2023-04-18T01:44:51.098Z,0
2023-04-18T01:47:17.794Z,0
2023-04-18T01:49:44.479Z,0
2023-04-18T01:52:11.157Z,0
2023-04-18T01:54:37.844Z,0
2023-04-18T01:57:04.534Z,0
2023-04-18T01:59:31.215Z,0
2023-04-18T02:01:57.904Z,0
2023-04-18T02:04:24.582Z,0
2023-04-18T02:06:51.259Z,0
2023-04-18T02:09:17.949Z,0
2023-04-18T02:11:44.645Z,0
2023-04-18T02:14:11.306Z,0
2023-04-18T02:16:36.553Z,0
2023-04-18T02:19:03.219Z,0
2023-04-18T02:21:29.913Z,0
2023-04-18T02:23:56.599Z,0
2023-04-18T02:26:23.297Z,0
2023-04-18T02:28:49.968Z,0
2023-04-18T02:31:16.670Z,0
2023-04-18T02:33:43.326Z,0
2023-04-18T02:36:10.025Z,0
2023-04-18T02:38:36.715Z,0
2023-04-18T02:41:03.405Z,0
2023-04-18T02:43:30.080Z,0
2023-04-18T02:45:56.766Z,0
2023-04-18T02:48:23.058Z,0
2023-04-18T02:50:49.725Z,0
2023-04-18T02:53:16.417Z,0
2023-04-18T02:55:43.110Z,0
2023-04-18T02:58:09.790Z,0
2023-04-18T03:00:35.042Z,0
2023-04-18T03:03:01.712Z,0
2023-04-18T03:05:28.399Z,0
2023-04-18T03:07:55.092Z,0
2023-04-18T03:10:21.782Z,0
2023-04-18T03:12:48.450Z,0
2023-04-18T03:15:15.157Z,0
2023-04-18T03:17:41.827Z,0
2023-04-18T03:20:08.526Z,0
2023-04-18T03:22:35.189Z,0
2023-04-18T03:25:01.888Z,0
2023-04-18T03:27:28.573Z,0
2023-04-18T03:32:21.949Z,0
2023-04-18T03:34:47.154Z,0
2023-04-18T03:39:40.535Z,0
2023-04-18T03:42:07.215Z,0
2023-04-18T03:44:33.903Z,0
2023-04-18T03:49:27.270Z,0
2023-04-18T03:51:52.514Z,0
2023-04-18T03:54:17.748Z,0
2023-04-18T03:56:44.426Z,0
2023-04-18T03:59:11.123Z,0
2023-04-18T04:01:37.772Z,0
2023-04-18T04:04:04.485Z,0
2023-04-18T04:06:31.155Z,4
2023-04-18T04:08:57.868Z,4
2023-04-18T04:11:24.534Z,4
2023-04-18T04:13:51.234Z,8
2023-04-18T04:16:17.928Z,8
2023-04-18T04:18:43.173Z,8
2023-04-18T04:21:08.380Z,12
2023-04-18T04:23:35.065Z,16
2023-04-18T04:26:01.749Z,20
2023-04-18T04:28:28.445Z,24
2023-04-18T04:30:55.117Z,32
2023-04-18T04:33:21.799Z,40
2023-04-18T04:35:48.496Z,44
2023-04-18T04:38:15.181Z,56
2023-04-18T04:40:41.865Z,72
2023-04-18T04:43:08.535Z,76
2023-04-18T04:45:35.233Z,92
2023-04-18T04:48:01.922Z,108
2023-04-18T04:50:28.589Z,148
2023-04-18T04:52:53.820Z,200
2023-04-18T04:55:20.501Z,216
2023-04-18T04:57:47.195Z,257
2023-04-18T05:00:13.881Z,289
2023-04-18T05:02:40.562Z,265
2023-04-18T05:05:07.244Z,281
2023-04-18T05:07:33.927Z,293
2023-04-18T05:10:00.610Z,333
2023-04-18T05:12:27.290Z,349
2023-04-18T05:14:53.994Z,385
2023-04-18T05:17:20.673Z,417
2023-04-18T05:19:47.357Z,417
2023-04-18T05:22:14.069Z,461
2023-04-18T05:24:39.259Z,518
2023-04-18T05:27:05.941Z,590
2023-04-18T05:29:32.621Z,662
2023-04-18T05:31:59.310Z,686
2023-04-18T05:34:25.993Z,718
2023-04-18T05:36:52.690Z,658
2023-04-18T05:39:19.358Z,710
2023-04-18T05:44:12.837Z,879
2023-04-18T05:46:39.418Z,803
2023-04-18T05:49:06.106Z,738
2023-04-18T05:51:32.838Z,959
2023-04-18T05:53:59.522Z,1104
2023-04-18T05:56:24.704Z,903
2023-04-18T05:58:51.442Z,943
2023-04-18T06:01:18.070Z,1132
2023-04-18T06:03:44.755Z,1421
2023-04-18T06:06:11.451Z,1578
2023-04-18T06:08:38.130Z,1658
2023-04-18T06:11:04.830Z,1887
2023-04-18T06:13:31.502Z,2132
2023-04-18T06:15:58.187Z,2264
2023-04-18T06:18:24.868Z,2292
2023-04-18T06:20:51.567Z,2144
2023-04-18T06:23:18.242Z,1811
2023-04-18T06:25:44.935Z,1710
2023-04-18T06:28:11.729Z,1738
2023-04-18T06:30:38.400Z,2264
2023-04-18T06:33:03.513Z,2220
2023-04-18T06:35:30.272Z,1722
2023-04-18T06:37:56.879Z,1582
2023-04-18T06:40:23.655Z,1622
2023-04-18T06:42:50.248Z,1919
2023-04-18T06:45:16.954Z,2361
2023-04-18T06:47:43.618Z,2176
2023-04-18T06:50:10.542Z,1762
2023-04-18T06:52:37.106Z,1746
2023-04-18T06:55:03.687Z,2019
2023-04-18T06:57:30.386Z,1979
2023-04-18T06:59:57.062Z,1971
2023-04-18T07:02:23.728Z,2035
2023-04-18T07:07:15.644Z,1911
2023-04-18T07:09:42.369Z,1782
2023-04-18T07:12:09.063Z,1746
2023-04-18T07:14:35.690Z,1481
2023-04-18T07:17:02.389Z,1698
2023-04-18T07:19:29.065Z,1634
2023-04-18T07:21:55.753Z,1963
2023-04-18T07:24:22.426Z,1658
2023-04-18T07:26:49.102Z,1927
2023-04-18T07:29:15.813Z,2248
2023-04-18T07:31:42.494Z,2590
2023-04-18T07:34:09.163Z,2662
2023-04-18T07:36:35.854Z,2895
2023-04-18T07:39:02.551Z,5646
2023-04-18T07:43:55.899Z,4200
2023-04-18T07:46:21.123Z,3734
2023-04-18T07:48:47.798Z,5417
2023-04-18T07:51:14.565Z,6131
2023-04-18T07:53:41.220Z,5521
2023-04-18T07:56:07.863Z,5577
2023-04-18T07:58:34.684Z,7043
2023-04-18T08:01:01.358Z,5971
2023-04-18T08:05:54.595Z,8252
2023-04-18T08:08:21.299Z,7846
2023-04-18T08:10:48.066Z,6232
2023-04-18T08:13:14.655Z,4967
2023-04-18T08:15:41.329Z,4112
2023-04-18T08:20:34.707Z,10577
2023-04-18T08:23:01.398Z,7802
2023-04-18T08:25:27.723Z,6095
2023-04-18T08:27:54.401Z,6975
2023-04-18T08:30:19.799Z,6842
2023-04-18T08:32:46.551Z,5485
2023-04-18T08:35:13.036Z,4148
2023-04-18T08:37:39.686Z,4228
2023-04-18T08:40:06.369Z,3899
2023-04-18T08:42:33.047Z,3586
2023-04-18T08:44:59.767Z,4802
2023-04-18T08:47:26.427Z,4140
2023-04-18T08:49:53.099Z,5413
2023-04-18T08:52:19.788Z,4666
2023-04-18T08:54:45.031Z,4204
2023-04-18T08:57:11.822Z,5465
2023-04-18T08:59:38.535Z,4320
2023-04-18T09:02:05.114Z,4726
2023-04-18T09:04:30.311Z,3682
2023-04-18T09:09:23.675Z,4425
2023-04-18T09:11:50.367Z,5886
2023-04-18T09:14:17.061Z,5694
2023-04-18T09:19:10.424Z,5782
2023-04-18T09:21:37.124Z,6111
2023-04-18T09:24:03.801Z,8617
2023-04-18T09:26:30.514Z,5858
2023-04-18T09:28:55.767Z,8505
2023-04-18T09:31:22.605Z,8505
2023-04-18T09:33:49.112Z,10284
2023-04-18T09:36:14.334Z,11874
2023-04-18T09:38:41.002Z,13862
2023-04-18T09:41:07.699Z,8557
2023-04-18T09:43:34.372Z,9047
2023-04-18T09:48:27.759Z,4521
2023-04-18T09:50:54.451Z,5589
2023-04-18T09:53:21.164Z,6505
2023-04-18T09:55:47.809Z,6951
2023-04-18T09:58:14.486Z,8059
2023-04-18T10:00:41.168Z,4887
2023-04-18T10:03:07.873Z,5525
2023-04-18T10:05:34.527Z,13641
2023-04-18T10:08:01.204Z,9882
2023-04-18T10:12:54.617Z,13540
2023-04-18T10:15:19.997Z,9565
2023-04-18T10:17:46.556Z,8027
2023-04-18T10:20:11.754Z,5662
2023-04-18T10:22:38.428Z,9661
2023-04-18T10:27:31.840Z,7726
2023-04-18T10:32:25.179Z,8569
2023-04-18T10:34:51.868Z,10171
2023-04-18T10:37:18.537Z,9730
2023-04-18T10:39:45.260Z,5903
2023-04-18T10:42:11.910Z,4268
2023-04-18T10:47:05.339Z,6067
2023-04-18T10:49:32.365Z,6388
2023-04-18T10:51:58.658Z,6541
2023-04-18T10:54:25.024Z,8585
2023-04-18T10:56:51.689Z,8834
2023-04-18T10:59:18.310Z,5746
2023-04-18T11:01:44.995Z,10657
2023-04-18T11:04:11.982Z,7248
2023-04-18T11:06:39.390Z,6127
2023-04-18T11:09:05.043Z,4180
2023-04-18T11:11:30.278Z,4353
2023-04-18T11:13:57.170Z,2180
2023-04-18T11:16:23.747Z,1803
2023-04-18T11:21:17.011Z,1786
2023-04-18T11:23:43.700Z,4433
2023-04-18T11:26:10.452Z,8248
2023-04-18T11:28:37.258Z,5694
2023-04-18T11:31:03.833Z,7433
2023-04-18T11:33:30.448Z,6364
2023-04-18T11:35:57.135Z,4963
2023-04-18T11:38:23.851Z,3485
2023-04-18T11:40:50.504Z,3549
2023-04-18T11:45:42.408Z,4216
2023-04-18T11:48:09.090Z,5196
2023-04-18T11:50:35.764Z,5617
2023-04-18T11:53:02.448Z,6501
2023-04-18T11:55:29.138Z,6947
2023-04-18T11:57:55.832Z,7734
2023-04-18T12:00:22.505Z,7352
2023-04-18T12:02:49.189Z,6738
2023-04-18T12:05:15.918Z,6637
2023-04-18T12:07:42.552Z,7529
2023-04-18T12:10:09.265Z,4465
2023-04-18T12:15:02.612Z,6019
2023-04-18T12:17:29.290Z,6392
2023-04-18T12:19:54.522Z,5292
2023-04-18T12:22:21.190Z,6228
2023-04-18T12:24:47.887Z,7774
2023-04-18T12:27:14.564Z,5393
2023-04-18T12:29:41.264Z,8236
2023-04-18T12:32:07.941Z,8167
2023-04-18T12:34:34.622Z,7766
2023-04-18T12:37:01.299Z,7059
2023-04-18T12:39:27.995Z,7983
2023-04-18T12:41:54.682Z,8513
2023-04-18T12:44:19.914Z,6075
2023-04-18T12:46:46.618Z,6308
2023-04-18T12:49:11.816Z,6364
2023-04-18T12:51:38.509Z,6734
2023-04-18T12:54:05.193Z,7252
2023-04-18T12:56:31.888Z,6923
2023-04-18T12:58:58.564Z,6565
2023-04-18T13:01:25.248Z,6015
2023-04-18T13:03:51.938Z,6401
2023-04-18T13:06:18.628Z,7039
2023-04-18T13:08:45.306Z,6890
2023-04-18T13:11:10.563Z,7368
2023-04-18T13:13:37.237Z,7332
2023-04-18T13:16:03.935Z,7352
2023-04-18T13:18:30.628Z,6706
2023-04-18T13:20:57.301Z,4686
2023-04-18T13:23:22.520Z,4718
2023-04-18T13:25:49.201Z,3276
2023-04-18T13:28:15.881Z,5156
2023-04-18T13:33:09.246Z,5774
2023-04-18T13:35:35.943Z,5911
2023-04-18T13:38:02.649Z,6007
2023-04-18T13:40:29.314Z,3662
2023-04-18T13:42:55.987Z,3622
2023-04-18T13:45:22.688Z,2951
2023-04-18T13:47:49.368Z,2923
2023-04-18T13:50:16.053Z,3766
2023-04-18T13:52:42.730Z,3859
2023-04-18T13:55:07.946Z,4493
2023-04-18T13:57:34.632Z,5421
2023-04-18T14:02:28.017Z,5826
2023-04-18T14:04:54.699Z,5593
2023-04-18T14:09:48.065Z,5272
2023-04-18T14:12:13.309Z,5136
2023-04-18T14:14:40.003Z,5654
2023-04-18T14:17:06.676Z,5268
2023-04-18T14:19:31.904Z,5360
2023-04-18T14:21:58.623Z,5509
2023-04-18T14:24:25.283Z,5348
2023-04-18T14:26:51.955Z,4850
2023-04-18T14:29:18.657Z,5224
2023-04-18T14:31:45.330Z,5252
2023-04-18T14:34:12.165Z,5055
2023-04-18T14:36:38.789Z,4569
2023-04-18T14:39:05.447Z,4373
2023-04-18T14:41:30.639Z,4445
2023-04-18T14:43:55.952Z,4120
2023-04-18T14:46:22.570Z,4786
2023-04-18T14:48:49.420Z,4601
2023-04-18T14:51:16.119Z,4485
2023-04-18T14:56:09.287Z,3818
2023-04-18T14:58:35.988Z,3080
2023-04-18T15:01:02.819Z,3521
2023-04-18T15:03:29.389Z,3545
2023-04-18T15:05:56.024Z,3718
2023-04-18T15:10:49.392Z,3722
2023-04-18T15:13:14.632Z,3345
2023-04-18T15:15:39.927Z,2465
2023-04-18T15:18:06.580Z,2124
2023-04-18T15:20:33.241Z,2236
2023-04-18T15:22:59.938Z,1887
2023-04-18T15:25:26.620Z,2325
2023-04-18T15:27:53.299Z,2710
2023-04-18T15:30:20.036Z,2056
2023-04-18T15:32:46.676Z,2244
2023-04-18T15:35:13.370Z,2056
2023-04-18T15:37:40.086Z,2288
2023-04-18T15:40:05.286Z,1666
2023-04-18T15:44:58.654Z,1100
2023-04-18T15:47:25.340Z,1184
2023-04-18T15:49:50.563Z,1112
2023-04-18T15:52:17.292Z,975
2023-04-18T15:54:43.938Z,1064
2023-04-18T15:57:10.616Z,1136
2023-04-18T15:59:37.293Z,1019
2023-04-18T16:02:03.996Z,831
2023-04-18T16:04:30.664Z,730
2023-04-18T16:06:57.360Z,698
2023-04-18T16:09:24.050Z,670
2023-04-18T16:11:50.713Z,674
2023-04-18T16:14:17.417Z,686
2023-04-18T16:16:44.084Z,658
2023-04-18T16:19:10.771Z,646
2023-04-18T16:24:04.148Z,875
2023-04-18T16:26:30.834Z,943
2023-04-18T16:28:56.062Z,1007
2023-04-18T16:31:22.742Z,999
2023-04-18T16:33:49.425Z,1116
2023-04-18T16:36:16.230Z,1060
2023-04-18T16:38:42.788Z,1052
2023-04-18T16:41:09.498Z,1028
2023-04-18T16:43:36.159Z,1156
2023-04-18T16:46:02.857Z,1120
2023-04-18T16:48:29.545Z,1080
2023-04-18T16:50:56.234Z,1015
2023-04-18T16:53:22.908Z,979
2023-04-18T16:58:16.402Z,835
2023-04-18T17:00:43.041Z,630
2023-04-18T17:03:08.208Z,465
2023-04-18T17:05:34.903Z,377
2023-04-18T17:08:01.558Z,353
2023-04-18T17:10:28.229Z,341
2023-04-18T17:12:55.003Z,317
2023-04-18T17:15:21.615Z,313
2023-04-18T17:17:48.284Z,277
2023-04-18T17:20:14.970Z,228
2023-04-18T17:22:41.727Z,212
2023-04-18T17:25:08.354Z,192
2023-04-18T17:27:35.019Z,188
2023-04-18T17:30:01.709Z,180
2023-04-18T17:37:21.764Z,220
2023-04-18T17:39:47.007Z,196
2023-04-18T17:42:13.743Z,168
2023-04-18T17:44:38.948Z,156
2023-04-18T17:47:05.637Z,120
2023-04-18T17:51:58.963Z,132
2023-04-18T17:59:19.087Z,68
2023-04-18T18:01:45.703Z,56
2023-04-18T18:06:39.133Z,44
2023-04-18T18:09:05.747Z,36
2023-04-18T18:11:32.427Z,28
2023-04-18T18:13:59.196Z,24
2023-04-18T18:16:25.822Z,16
2023-04-18T18:18:52.500Z,16
2023-04-18T18:23:45.920Z,12
2023-04-18T18:26:11.132Z,12
2023-04-18T18:28:36.327Z,8
2023-04-18T18:31:03.013Z,4
2023-04-18T18:33:29.727Z,4
2023-04-18T18:35:56.392Z,4
2023-04-18T18:38:23.210Z,0
2023-04-18T18:40:49.749Z,4
2023-04-18T18:43:16.427Z,0
2023-04-18T18:45:43.114Z,0
2023-04-18T18:48:09.804Z,0
2023-04-18T18:50:36.495Z,0
2023-04-18T18:57:56.533Z,0
2023-04-18T19:00:21.802Z,0
2023-04-18T19:05:15.159Z,0
2023-04-18T19:07:41.839Z,0
2023-04-18T19:10:08.504Z,0
2023-04-18T19:12:35.185Z,0
2023-04-18T19:15:01.907Z,0
2023-04-18T19:19:55.495Z,0
2023-04-18T19:22:21.940Z,0
2023-04-18T19:27:15.289Z,0
2023-04-18T19:29:40.546Z,0
2023-04-18T19:32:07.234Z,0
2023-04-18T19:34:33.911Z,0
2023-04-18T19:37:00.586Z,0
2023-04-18T19:39:27.269Z,0
2023-04-18T19:41:53.953Z,0
2023-04-18T19:44:20.650Z,0
2023-04-18T19:46:47.441Z,0
2023-04-18T19:49:14.018Z,0
2023-04-18T19:51:40.883Z,0
2023-04-18T19:54:07.402Z,0
2023-04-18T19:56:34.073Z,0
2023-04-18T19:59:00.750Z,0
2023-04-18T20:01:27.449Z,0
2023-04-18T20:03:52.668Z,0
2023-04-18T20:06:19.428Z,0
2023-04-18T20:08:46.179Z,0
2023-04-18T20:11:11.278Z,0
2023-04-18T20:13:36.506Z,0
2023-04-18T20:16:03.190Z,0
2023-04-18T20:18:29.598Z,0
2023-04-18T20:20:56.287Z,0
2023-04-18T20:23:23.030Z,0
2023-04-18T20:25:49.654Z,0
2023-04-18T20:28:16.372Z,0
2023-04-18T20:30:43.022Z,0
2023-04-18T20:33:09.714Z,0
2023-04-18T20:38:03.073Z,0
2023-04-18T20:40:29.788Z,0
2023-04-18T20:42:56.458Z,0
2023-04-18T20:47:48.443Z,0
2023-04-18T20:50:13.648Z,0
2023-04-18T20:52:38.884Z,0
2023-04-18T20:55:05.537Z,0
2023-04-18T20:57:32.217Z,0
2023-04-18T21:02:25.566Z,0
2023-04-18T21:07:18.939Z,0
2023-04-18T21:09:45.628Z,0
2023-04-18T21:17:05.674Z,0
2023-04-18T21:19:32.363Z,0
2023-04-18T21:21:59.067Z,0
2023-04-18T21:24:25.759Z,0
2023-04-18T21:26:50.994Z,0
2023-04-18T21:31:44.319Z,0
2023-04-18T21:34:10.997Z,0
2023-04-18T21:36:37.710Z,0
2023-04-18T21:39:04.425Z,0
2023-04-18T21:41:31.116Z,0
2023-04-18T21:43:57.772Z,0
2023-04-18T21:46:24.499Z,0
2023-04-18T21:51:17.803Z,0
2023-04-18T21:53:44.656Z,0
2023-04-18T21:56:11.176Z,0
2023-04-18T21:58:37.866Z,0
2023-04-18T22:01:03.084Z,0
2023-04-18T22:03:29.782Z,0
2023-04-18T22:05:56.446Z,0
2023-04-18T22:08:23.177Z,0
2023-04-18T22:10:49.813Z,0
2023-04-18T22:13:16.497Z,0
2023-04-18T22:15:43.187Z,0
2023-04-18T22:18:09.928Z,0
2023-04-18T22:20:36.539Z,0
2023-04-18T22:23:01.798Z,0
2023-04-18T22:25:27.041Z,0
2023-04-18T22:27:53.732Z,0
2023-04-18T22:30:20.057Z,0
2023-04-18T22:32:46.828Z,0
2023-04-18T22:35:13.420Z,0
2023-04-18T22:37:40.102Z,0
2023-04-18T22:42:33.468Z,0
2023-04-18T22:45:00.168Z,0
2023-04-18T22:47:26.928Z,0
2023-04-18T22:49:53.536Z,0
2023-04-18T22:52:20.226Z,0
2023-04-18T22:54:46.896Z,0
2023-04-18T22:59:40.380Z,0
2023-04-18T23:06:58.908Z,0
2023-04-18T23:09:24.141Z,0
2023-04-18T23:11:49.388Z,0
2023-04-18T23:14:16.050Z,0
2023-04-18T23:16:42.734Z,0
2023-04-18T23:19:09.419Z,0
2023-04-18T23:21:36.097Z,0
2023-04-18T23:24:02.801Z,0
2023-04-18T23:26:29.501Z,0
2023-04-18T23:28:56.186Z,0
2023-04-18T23:33:49.651Z,0
2023-04-18T23:36:16.210Z,0
2023-04-18T23:38:42.993Z,0
2023-04-18T23:41:09.607Z,0
2023-04-18T23:43:36.254Z,0
2023-04-18T23:48:29.636Z,0
2023-04-18T23:50:54.856Z,0
2023-04-18T23:53:21.526Z,0
2023-04-18T23:58:14.907Z,0
